Terminal Aerodrome Forecast
Issued by NWS Wilmington, OH

Current Version | Previous Version | Graphics & Text | Print | Product List | Glossary On
Versions: 1 2 3 4 5 6 7 8 9 10 11 12 13 14 15 16
000
FTUS41 KILN 241744
TAFDAY
TAF
KDAY 241744Z 2418/2518 08014KT P6SM FEW250
     FM250000 10010KT P6SM SCT100
     FM250600 10010KT P6SM BKN050
     FM251400 13008KT P6SM SCT050=

USA.gov is the U.S. government's official web portal to all federal, state and local government web resources and services.